Los Angeles, CA (90012)

3:15 AM PDT on October 25, 2014 (GMT -0700)
Downtown Los Angeles | Change Station
CLOSE
Current Station
Personal Weather Station
Location: Los Angeles, CA
Elevation: 343 ft
Nearby Weather Stations
Active Advisory: Beach Hazard Statement Active Notice: Record Report

Elev 343 ft 34.06 °N, 118.26 °W | Updated 2 minutes ago

Clear
Clear
65.6 °F
Feels Like 65.6 °F
N
0.0
Wind Variable Wind from WNW
Gusts 5.0 mph

Today
High -- | Low -- °F
--% Chance of Precip.
Yesterday
High -- | Low -- °F
Precip. -- in
7:06 AM 6:07 PM
New Moon, 2% visible
Pressure 29.98 in
Visibility 10.0 miles
Clouds Clear
Dew Point 58 °F
Humidity 77%
Rainfall 0.00 in
Snow Depth Not available.
UV 0 out of 12
Pollen 4.10 out of 12
Air Quality Not available.
Flu Activity Sporadic
METAR KCQT 250947Z AUTO 05003KT 10SM CLR 18/14 A2999 RMK AO2 SLP152 T01780139

More Conditions Fewer Conditions

Pressure 29.98 in
Visibility 10.0 miles
Clouds Clear
Dew Point 58 °F
Humidity 77%
Rainfall 0.00 in
Snow Depth Not available.
UV 0 out of 12
Pollen 4.10 out of 12
Air Quality Not available.
Flu Activity Sporadic
METAR KCQT 250947Z AUTO 05003KT 10SM CLR 18/14 A2999 RMK AO2 SLP152 T01780139

More Conditions Fewer Conditions

10-Day Weather Forecast

Almanac

Astronomy

Oct. 25, 2014 Rise Set
Actual Time 7:06 AM PDT 6:07 PM PDT
Civil Twilight 6:40 AM PDT 6:32 PM PDT
Nautical Twilight 6:11 AM PDT 7:01 PM PDT
Astronomical Twilight 5:42 AM PDT 7:30 PM PDT
Moon 8:46 AM PDT 7:37 PM PDT
Length of Visible Light 11h 51m
Length of Day
11h 00m
Tomorrow will be 1m 56s shorter.
New Moon, 2% of the Moon is Illuminated
Today
New Moon
Oct 30
First Quarter
Nov 6
Full
Nov 14
Last Quarter
Nov 22
New

Today's Extremes

State Highs State Lows

Community

WunderPhotos

Upload Photos

1,764,796 photos uploaded!

Nearby

Air Quality

  Air Quality AQ Index Pollutant
Yesterday Moderate
PM10
Yesterday Good
OZONE
Sunday Good
PM10
Sunday Good
OZONE
Sunday Good
CO
Sunday Good
NO2

Snow Depth

Station Depth Elevation
Virginia Lakes Ridge 0 in 9200 ft
Leavitt Lake 1 in 9400 ft
Sonora Pass 0 in 8800 ft
Leavitt Meadows 0 in 7200 ft
Summit Meadow 1 in 9122 ft

Earthquake Activity

City Distance Mag. Time & Date
Brea, California 21 miles 2.9 3:35 PM PDT
2014-10-23
Brea, California 21 miles 2.8 3:34 PM PDT
2014-10-23
Corona, California 35 miles 2.5 1:09 PM PDT
2014-10-23
Solvang, California 112 miles 2.6 5:35 PM PDT
2014-10-22
Minimum magnitude displayed is 2.5.

Coastal Water Temperatures

Place Temperature
Santa Monica Pier 69.1 °F
Los Angeles, CA 69.1 °F
La Jolla, CA 71.1 °F

Nearby Weather Stations